Lilongwe, Malawi
Current Conditions -  °F | °C
As of 11:00 PM on Friday 19 Dec 2014 (Local Time) from FQLC Reporting Station
Thunderstorm Thunderstorm  
Wind Chill: 72°   Ceiling: 700
Heat Index: 72°   Visibility: 6mi
Dew Point: 64°   Wind: 6mph
Humidity: 78%   Direction: 240°WSW
Pressure: 30.12"   Gusts: NA
Location:  13.97°S, 33.8°E
Report Text: FQLC 192100Z 24005KT 220V320 9999 TS BKN007 BKN014 SCT020CBBKN070 22/18 Q1020 RMK CB TO ALL/D
Loading
Personal Weather Stations






























Interactive Weather Map New forecast layout! Learn more

10-Day Weather Forecast

Advertisements
Track Severe Weather on mobile